sensor_id;sensor_type;location;lat;lon;timestamp;P1;P2;P0
65574;PMS5003;52216;54.942;73.394;2023-01-31T00:00:08;5.00;4.00;1.00
65574;PMS5003;52216;54.942;73.394;2023-01-31T00:03:13;5.33;3.33;1.00
65574;PMS5003;52216;54.942;73.394;2023-01-31T00:09:19;3.00;3.00;1.00
65574;PMS5003;52216;54.942;73.394;2023-01-31T00:12:27;3.50;3.50;1.50
65574;PMS5003;52216;54.942;73.394;2023-01-31T00:15:40;3.00;3.00;1.00
65574;PMS5003;52216;54.942;73.394;2023-01-31T00:18:53;5.00;3.00;0.00
65574;PMS5003;52216;54.942;73.394;2023-01-31T00:22:02;5.00;3.00;1.00
65574;PMS5003;52216;54.942;73.394;2023-01-31T00:25:09;5.75;5.00;2.00
65574;PMS5003;52216;54.942;73.394;2023-01-31T00:28:23;7.00;5.00;2.00
65574;PMS5003;52216;54.942;73.394;2023-01-31T00:31:27;7.25;6.00;1.00
65574;PMS5003;52216;54.942;73.394;2023-01-31T00:34:30;4.00;3.00;1.00
65574;PMS5003;52216;54.942;73.394;2023-01-31T00:37:33;3.50;3.00;2.00
65574;PMS5003;52216;54.942;73.394;2023-01-31T00:40:52;5.00;4.25;2.25
65574;PMS5003;52216;54.942;73.394;2023-01-31T00:43:59;6.25;6.00;3.00
65574;PMS5003;52216;54.942;73.394;2023-01-31T00:47:02;6.00;5.00;2.50
65574;PMS5003;52216;54.942;73.394;2023-01-31T00:50:05;8.00;5.00;3.00
65574;PMS5003;52216;54.942;73.394;2023-01-31T00:53:08;7.75;5.00;3.00
65574;PMS5003;52216;54.942;73.394;2023-01-31T00:56:13;5.00;3.00;1.00
65574;PMS5003;52216;54.942;73.394;2023-01-31T00:59:17;5.00;5.00;2.75
65574;PMS5003;52216;54.942;73.394;2023-01-31T01:02:20;6.00;6.00;3.00
65574;PMS5003;52216;54.942;73.394;2023-01-31T01:05:24;5.00;3.25;1.50
65574;PMS5003;52216;54.942;73.394;2023-01-31T01:08:34;6.00;4.50;1.00
65574;PMS5003;52216;54.942;73.394;2023-01-31T01:11:38;6.00;5.75;3.00
65574;PMS5003;52216;54.942;73.394;2023-01-31T01:14:41;6.00;5.40;2.00
65574;PMS5003;52216;54.942;73.394;2023-01-31T01:17:50;8.00;6.00;2.00
65574;PMS5003;52216;54.942;73.394;2023-01-31T01:20:55;10.00;8.00;3.00
65574;PMS5003;52216;54.942;73.394;2023-01-31T01:24:00;10.00;7.50;2.00
65574;PMS5003;52216;54.942;73.394;2023-01-31T01:27:03;7.00;5.00;2.00
65574;PMS5003;52216;54.942;73.394;2023-01-31T01:30:07;10.25;8.75;5.00
65574;PMS5003;52216;54.942;73.394;2023-01-31T01:33:11;10.00;9.00;3.00
65574;PMS5003;52216;54.942;73.394;2023-01-31T01:36:16;8.75;8.00;3.00
65574;PMS5003;52216;54.942;73.394;2023-01-31T01:39:19;9.25;6.50;2.00
65574;PMS5003;52216;54.942;73.394;2023-01-31T01:42:24;10.25;8.00;3.00
65574;PMS5003;52216;54.942;73.394;2023-01-31T01:45:35;11.00;7.00;2.00
65574;PMS5003;52216;54.942;73.394;2023-01-31T01:48:50;9.00;6.00;3.00
65574;PMS5003;52216;54.942;73.394;2023-01-31T01:52:01;6.50;3.00;2.00
65574;PMS5003;52216;54.942;73.394;2023-01-31T01:55:06;5.00;4.00;1.25
65574;PMS5003;52216;54.942;73.394;2023-01-31T02:01:27;6.00;5.00;1.75
65574;PMS5003;52216;54.942;73.394;2023-01-31T02:04:33;8.00;6.00;2.00
65574;PMS5003;52216;54.942;73.394;2023-01-31T02:07:38;11.00;9.50;4.00
65574;PMS5003;52216;54.942;73.394;2023-01-31T02:10:54;11.00;10.00;3.00
65574;PMS5003;52216;54.942;73.394;2023-01-31T02:14:09;11.00;10.00;4.75
65574;PMS5003;52216;54.942;73.394;2023-01-31T02:17:18;15.00;12.50;5.00
65574;PMS5003;52216;54.942;73.394;2023-01-31T02:30:33;13.00;12.00;5.00
65574;PMS5003;52216;54.942;73.394;2023-01-31T02:33:56;19.00;16.00;7.67
65574;PMS5003;52216;54.942;73.394;2023-01-31T02:37:10;19.00;16.00;9.50
65574;PMS5003;52216;54.942;73.394;2023-01-31T02:46:39;11.00;8.50;3.00
65574;PMS5003;52216;54.942;73.394;2023-01-31T02:56:13;8.50;6.00;3.75
65574;PMS5003;52216;54.942;73.394;2023-01-31T02:59:27;8.50;5.00;1.00
65574;PMS5003;52216;54.942;73.394;2023-01-31T03:02:33;8.00;5.00;2.00
65574;PMS5003;52216;54.942;73.394;2023-01-31T03:05:38;6.00;5.75;3.00
65574;PMS5003;52216;54.942;73.394;2023-01-31T03:08:45;9.00;6.00;3.00
65574;PMS5003;52216;54.942;73.394;2023-01-31T03:12:16;8.00;6.00;3.00
65574;PMS5003;52216;54.942;73.394;2023-01-31T03:18:32;6.00;5.00;1.00
65574;PMS5003;52216;54.942;73.394;2023-01-31T03:21:46;6.25;5.25;2.50
65574;PMS5003;52216;54.942;73.394;2023-01-31T03:24:50;8.00;7.00;4.00
65574;PMS5003;52216;54.942;73.394;2023-01-31T03:27:56;12.00;10.00;4.50
65574;PMS5003;52216;54.942;73.394;2023-01-31T03:34:15;10.00;8.00;3.00
65574;PMS5003;52216;54.942;73.394;2023-01-31T03:37:20;8.00;6.00;1.00
65574;PMS5003;52216;54.942;73.394;2023-01-31T03:40:30;6.00;6.00;2.00
65574;PMS5003;52216;54.942;73.394;2023-01-31T03:43:38;8.25;8.00;3.00
65574;PMS5003;52216;54.942;73.394;2023-01-31T03:46:46;7.00;5.00;1.00
65574;PMS5003;52216;54.942;73.394;2023-01-31T03:50:00;8.50;7.75;3.00
65574;PMS5003;52216;54.942;73.394;2023-01-31T03:59:36;9.50;8.25;3.00
65574;PMS5003;52216;54.942;73.394;2023-01-31T04:02:40;10.00;8.00;3.00
65574;PMS5003;52216;54.942;73.394;2023-01-31T04:05:44;9.50;8.00;3.00
65574;PMS5003;52216;54.942;73.394;2023-01-31T04:08:55;12.00;11.67;3.67
65574;PMS5003;52216;54.942;73.394;2023-01-31T04:11:59;13.00;12.00;5.00
65574;PMS5003;52216;54.942;73.394;2023-01-31T04:15:02;14.00;12.00;6.00
65574;PMS5003;52216;54.942;73.394;2023-01-31T04:18:05;14.25;13.25;5.50
65574;PMS5003;52216;54.942;73.394;2023-01-31T04:21:07;24.75;21.50;12.25
65574;PMS5003;52216;54.942;73.394;2023-01-31T04:24:10;32.00;25.00;15.00
65574;PMS5003;52216;54.942;73.394;2023-01-31T04:27:12;33.00;26.00;16.00
65574;PMS5003;52216;54.942;73.394;2023-01-31T04:30:14;30.00;24.00;15.00
65574;PMS5003;52216;54.942;73.394;2023-01-31T04:33:16;20.50;19.00;10.50
65574;PMS5003;52216;54.942;73.394;2023-01-31T04:36:18;14.00;12.00;5.25
65574;PMS5003;52216;54.942;73.394;2023-01-31T04:39:21;12.00;12.00;4.00
65574;PMS5003;52216;54.942;73.394;2023-01-31T04:42:24;11.00;9.00;2.00
65574;PMS5003;52216;54.942;73.394;2023-01-31T04:45:31;11.33;9.67;4.00
65574;PMS5003;52216;54.942;73.394;2023-01-31T04:48:35;9.00;7.00;2.50
65574;PMS5003;52216;54.942;73.394;2023-01-31T04:51:43;9.50;7.75;3.00
65574;PMS5003;52216;54.942;73.394;2023-01-31T04:54:46;10.50;8.00;3.00
65574;PMS5003;52216;54.942;73.394;2023-01-31T04:58:00;13.75;10.00;4.00
65574;PMS5003;52216;54.942;73.394;2023-01-31T05:01:03;12.00;11.75;4.00
65574;PMS5003;52216;54.942;73.394;2023-01-31T05:04:15;12.00;10.67;5.00
65574;PMS5003;52216;54.942;73.394;2023-01-31T05:07:23;14.00;13.00;5.50
65574;PMS5003;52216;54.942;73.394;2023-01-31T05:10:27;11.00;10.00;4.00
65574;PMS5003;52216;54.942;73.394;2023-01-31T05:13:29;12.00;11.00;4.00
65574;PMS5003;52216;54.942;73.394;2023-01-31T05:16:34;11.25;9.00;3.00
65574;PMS5003;52216;54.942;73.394;2023-01-31T05:19:47;10.75;10.00;3.75
65574;PMS5003;52216;54.942;73.394;2023-01-31T05:23:03;11.25;10.25;3.00
65574;PMS5003;52216;54.942;73.394;2023-01-31T05:26:06;10.00;9.00;3.00
65574;PMS5003;52216;54.942;73.394;2023-01-31T05:29:09;12.00;7.00;3.00
65574;PMS5003;52216;54.942;73.394;2023-01-31T05:32:22;10.00;6.00;3.00
65574;PMS5003;52216;54.942;73.394;2023-01-31T05:35:26;9.00;7.00;3.00
65574;PMS5003;52216;54.942;73.394;2023-01-31T05:38:29;10.00;8.00;3.00
65574;PMS5003;52216;54.942;73.394;2023-01-31T05:41:32;8.00;7.00;3.00
65574;PMS5003;52216;54.942;73.394;2023-01-31T05:44:35;10.00;7.50;3.25
65574;PMS5003;52216;54.942;73.394;2023-01-31T05:47:39;11.00;7.00;3.00
65574;PMS5003;52216;54.942;73.394;2023-01-31T05:50:52;10.50;7.00;3.00
65574;PMS5003;52216;54.942;73.394;2023-01-31T05:53:55;10.00;6.75;2.75
65574;PMS5003;52216;54.942;73.394;2023-01-31T05:56:58;10.00;8.00;3.00
65574;PMS5003;52216;54.942;73.394;2023-01-31T06:00:12;10.00;7.25;3.00
65574;PMS5003;52216;54.942;73.394;2023-01-31T06:03:16;8.00;5.50;1.75
65574;PMS5003;52216;54.942;73.394;2023-01-31T06:06:34;9.00;7.00;3.00
65574;PMS5003;52216;54.942;73.394;2023-01-31T06:09:38;8.00;7.00;3.00
65574;PMS5003;52216;54.942;73.394;2023-01-31T06:12:42;9.00;6.00;2.00
65574;PMS5003;52216;54.942;73.394;2023-01-31T06:15:50;8.00;5.50;2.00
65574;PMS5003;52216;54.942;73.394;2023-01-31T06:18:52;7.00;6.00;2.00
65574;PMS5003;52216;54.942;73.394;2023-01-31T06:22:03;5.25;5.00;1.50
65574;PMS5003;52216;54.942;73.394;2023-01-31T06:25:12;4.00;4.00;1.00
65574;PMS5003;52216;54.942;73.394;2023-01-31T06:28:16;5.00;5.00;1.00
65574;PMS5003;52216;54.942;73.394;2023-01-31T06:31:30;7.75;6.00;3.00
65574;PMS5003;52216;54.942;73.394;2023-01-31T06:34:33;9.00;7.00;3.00
65574;PMS5003;52216;54.942;73.394;2023-01-31T06:37:36;7.00;5.00;3.00
65574;PMS5003;52216;54.942;73.394;2023-01-31T06:40:39;8.00;5.00;1.25
65574;PMS5003;52216;54.942;73.394;2023-01-31T06:43:42;7.00;4.50;2.00
65574;PMS5003;52216;54.942;73.394;2023-01-31T06:46:46;7.00;4.00;2.00
65574;PMS5003;52216;54.942;73.394;2023-01-31T06:49:50;7.00;5.00;2.75
65574;PMS5003;52216;54.942;73.394;2023-01-31T06:52:58;7.25;5.00;2.00
65574;PMS5003;52216;54.942;73.394;2023-01-31T06:56:01;7.00;5.00;3.00
65574;PMS5003;52216;54.942;73.394;2023-01-31T06:59:04;7.00;5.00;2.00
65574;PMS5003;52216;54.942;73.394;2023-01-31T07:02:11;5.00;5.00;3.00
65574;PMS5003;52216;54.942;73.394;2023-01-31T07:05:14;5.00;5.00;3.00
65574;PMS5003;52216;54.942;73.394;2023-01-31T07:08:16;9.00;6.00;3.00
65574;PMS5003;52216;54.942;73.394;2023-01-31T07:11:19;10.75;7.00;3.00
65574;PMS5003;52216;54.942;73.394;2023-01-31T07:14:22;9.25;7.00;3.00
65574;PMS5003;52216;54.942;73.394;2023-01-31T07:17:25;6.00;5.00;1.00
65574;PMS5003;52216;54.942;73.394;2023-01-31T07:20:39;9.75;6.00;2.00
65574;PMS5003;52216;54.942;73.394;2023-01-31T07:23:52;10.00;5.00;1.00
65574;PMS5003;52216;54.942;73.394;2023-01-31T07:26:54;9.00;5.00;3.00
65574;PMS5003;52216;54.942;73.394;2023-01-31T07:29:57;9.00;4.00;1.50
65574;PMS5003;52216;54.942;73.394;2023-01-31T07:33:00;6.50;4.50;2.00
65574;PMS5003;52216;54.942;73.394;2023-01-31T07:36:04;5.00;4.50;2.00
65574;PMS5003;52216;54.942;73.394;2023-01-31T07:39:08;8.25;6.25;3.00
65574;PMS5003;52216;54.942;73.394;2023-01-31T07:42:21;8.25;5.25;3.00
65574;PMS5003;52216;54.942;73.394;2023-01-31T07:45:25;10.75;8.00;4.00
65574;PMS5003;52216;54.942;73.394;2023-01-31T07:48:29;10.75;9.00;3.25
65574;PMS5003;52216;54.942;73.394;2023-01-31T07:51:32;11.00;9.00;4.00
65574;PMS5003;52216;54.942;73.394;2023-01-31T07:54:35;13.00;10.00;3.00
65574;PMS5003;52216;54.942;73.394;2023-01-31T07:57:50;13.00;9.00;3.00
65574;PMS5003;52216;54.942;73.394;2023-01-31T08:00:52;15.67;11.00;5.00
65574;PMS5003;52216;54.942;73.394;2023-01-31T08:04:19;15.00;11.67;4.00
65574;PMS5003;52216;54.942;73.394;2023-01-31T08:07:22;13.25;12.00;3.00
65574;PMS5003;52216;54.942;73.394;2023-01-31T08:10:24;13.00;13.00;5.00
65574;PMS5003;52216;54.942;73.394;2023-01-31T08:13:31;13.00;11.00;4.00
65574;PMS5003;52216;54.942;73.394;2023-01-31T08:16:45;15.75;13.00;5.00
65574;PMS5003;52216;54.942;73.394;2023-01-31T08:19:47;16.00;14.25;6.00
65574;PMS5003;52216;54.942;73.394;2023-01-31T08:22:49;16.50;13.00;5.00
65574;PMS5003;52216;54.942;73.394;2023-01-31T08:25:52;17.00;16.00;7.00
65574;PMS5003;52216;54.942;73.394;2023-01-31T08:28:54;16.50;15.00;5.00
65574;PMS5003;52216;54.942;73.394;2023-01-31T08:31:57;15.00;15.00;5.00
65574;PMS5003;52216;54.942;73.394;2023-01-31T08:35:02;15.00;15.00;6.00
65574;PMS5003;52216;54.942;73.394;2023-01-31T08:38:08;15.00;13.75;5.00
65574;PMS5003;52216;54.942;73.394;2023-01-31T08:41:17;16.00;14.00;4.00
65574;PMS5003;52216;54.942;73.394;2023-01-31T08:44:19;15.00;13.00;5.00
65574;PMS5003;52216;54.942;73.394;2023-01-31T08:47:53;18.33;16.67;8.33
65574;PMS5003;52216;54.942;73.394;2023-01-31T08:50:58;18.50;16.75;9.00
65574;PMS5003;52216;54.942;73.394;2023-01-31T08:54:01;14.00;12.25;5.00
65574;PMS5003;52216;54.942;73.394;2023-01-31T08:57:04;13.00;12.00;4.00
65574;PMS5003;52216;54.942;73.394;2023-01-31T09:00:06;13.25;12.25;5.00
65574;PMS5003;52216;54.942;73.394;2023-01-31T09:03:13;14.00;12.50;4.00
65574;PMS5003;52216;54.942;73.394;2023-01-31T09:06:35;13.00;11.00;3.50
65574;PMS5003;52216;54.942;73.394;2023-01-31T09:09:38;17.00;13.00;7.00
65574;PMS5003;52216;54.942;73.394;2023-01-31T09:12:50;17.00;15.00;6.50
65574;PMS5003;52216;54.942;73.394;2023-01-31T09:15:59;13.00;13.00;5.00
65574;PMS5003;52216;54.942;73.394;2023-01-31T09:19:02;14.25;12.00;5.00
65574;PMS5003;52216;54.942;73.394;2023-01-31T09:22:04;14.00;13.00;5.00
65574;PMS5003;52216;54.942;73.394;2023-01-31T09:25:06;23.50;20.50;11.50
65574;PMS5003;52216;54.942;73.394;2023-01-31T09:28:09;19.00;17.25;9.25
65574;PMS5003;52216;54.942;73.394;2023-01-31T09:31:18;15.00;11.00;4.75
65574;PMS5003;52216;54.942;73.394;2023-01-31T09:34:23;11.00;9.25;4.00
65574;PMS5003;52216;54.942;73.394;2023-01-31T09:37:29;13.75;12.50;5.00
65574;PMS5003;52216;54.942;73.394;2023-01-31T09:40:38;13.00;11.00;3.00
65574;PMS5003;52216;54.942;73.394;2023-01-31T09:43:44;13.00;11.25;3.00
65574;PMS5003;52216;54.942;73.394;2023-01-31T09:49:59;13.00;11.50;5.00
65574;PMS5003;52216;54.942;73.394;2023-01-31T09:53:05;53.50;46.00;24.00
65574;PMS5003;52216;54.942;73.394;2023-01-31T09:59:32;33.33;26.67;15.00
65574;PMS5003;52216;54.942;73.394;2023-01-31T10:05:50;13.00;11.75;5.00
65574;PMS5003;52216;54.942;73.394;2023-01-31T10:09:14;15.00;14.00;5.00
65574;PMS5003;52216;54.942;73.394;2023-01-31T10:12:35;13.00;12.25;5.75
65574;PMS5003;52216;54.942;73.394;2023-01-31T10:15:51;13.00;12.00;4.00
65574;PMS5003;52216;54.942;73.394;2023-01-31T10:19:01;13.00;11.00;4.00
65574;PMS5003;52216;54.942;73.394;2023-01-31T10:22:07;12.00;9.00;3.00
65574;PMS5003;52216;54.942;73.394;2023-01-31T10:25:19;11.00;8.00;3.00
65574;PMS5003;52216;54.942;73.394;2023-01-31T10:28:27;10.00;6.00;3.00
65574;PMS5003;52216;54.942;73.394;2023-01-31T10:31:44;13.00;9.00;3.75
65574;PMS5003;52216;54.942;73.394;2023-01-31T10:35:48;14.00;13.00;5.00
65574;PMS5003;52216;54.942;73.394;2023-01-31T10:38:26;12.75;11.00;4.75
65574;PMS5003;52216;54.942;73.394;2023-01-31T10:54:30;74.00;62.00;32.00
65574;PMS5003;52216;54.942;73.394;2023-01-31T10:57:39;46.50;36.00;20.75
65574;PMS5003;52216;54.942;73.394;2023-01-31T11:00:45;27.00;21.75;12.00
65574;PMS5003;52216;54.942;73.394;2023-01-31T11:03:54;15.25;13.50;5.50
65574;PMS5003;52216;54.942;73.394;2023-01-31T11:07:00;11.00;10.67;3.00
65574;PMS5003;52216;54.942;73.394;2023-01-31T11:10:19;12.00;9.00;3.00
65574;PMS5003;52216;54.942;73.394;2023-01-31T11:13:21;12.00;10.00;3.00
65574;PMS5003;52216;54.942;73.394;2023-01-31T11:16:24;10.75;7.75;3.00
65574;PMS5003;52216;54.942;73.394;2023-01-31T11:19:36;9.00;5.75;1.00
65574;PMS5003;52216;54.942;73.394;2023-01-31T11:22:42;9.00;6.50;2.00
65574;PMS5003;52216;54.942;73.394;2023-01-31T11:25:48;8.25;5.00;2.50
65574;PMS5003;52216;54.942;73.394;2023-01-31T11:28:51;5.50;4.75;3.00
65574;PMS5003;52216;54.942;73.394;2023-01-31T11:31:55;5.00;4.00;2.00
65574;PMS5003;52216;54.942;73.394;2023-01-31T11:41:49;7.00;5.00;1.75
65574;PMS5003;52216;54.942;73.394;2023-01-31T11:45:21;7.00;5.00;1.00
65574;PMS5003;52216;54.942;73.394;2023-01-31T11:48:18;5.25;4.25;1.50
65574;PMS5003;52216;54.942;73.394;2023-01-31T11:51:29;5.00;5.00;1.25
65574;PMS5003;52216;54.942;73.394;2023-01-31T11:54:33;5.00;4.75;2.00
65574;PMS5003;52216;54.942;73.394;2023-01-31T11:57:49;7.00;5.00;1.25
65574;PMS5003;52216;54.942;73.394;2023-01-31T12:04:03;7.00;6.00;2.00
65574;PMS5003;52216;54.942;73.394;2023-01-31T12:07:21;10.00;8.50;4.00
65574;PMS5003;52216;54.942;73.394;2023-01-31T12:10:35;10.25;8.00;3.00
65574;PMS5003;52216;54.942;73.394;2023-01-31T12:13:47;12.00;10.00;3.00
65574;PMS5003;52216;54.942;73.394;2023-01-31T12:16:52;11.00;8.25;3.00
65574;PMS5003;52216;54.942;73.394;2023-01-31T12:23:22;11.00;9.00;3.00
65574;PMS5003;52216;54.942;73.394;2023-01-31T12:26:43;10.00;8.00;3.00
65574;PMS5003;52216;54.942;73.394;2023-01-31T12:29:58;10.00;9.00;3.00
65574;PMS5003;52216;54.942;73.394;2023-01-31T12:33:20;9.75;6.75;3.00
65574;PMS5003;52216;54.942;73.394;2023-01-31T12:40:03;7.00;6.00;2.00
65574;PMS5003;52216;54.942;73.394;2023-01-31T12:49:53;8.00;5.00;2.00
65574;PMS5003;52216;54.942;73.394;2023-01-31T12:59:41;6.50;5.00;2.00
65574;PMS5003;52216;54.942;73.394;2023-01-31T13:03:02;6.00;5.00;1.00
65574;PMS5003;52216;54.942;73.394;2023-01-31T13:06:11;5.00;5.00;1.00
65574;PMS5003;52216;54.942;73.394;2023-01-31T13:09:32;9.88;6.63;2.88
65574;PMS5003;52216;54.942;73.394;2023-01-31T13:12:41;7.00;5.25;2.00
65574;PMS5003;52216;54.942;73.394;2023-01-31T13:15:49;6.00;5.00;2.00
65574;PMS5003;52216;54.942;73.394;2023-01-31T13:18:53;5.75;5.00;2.50
65574;PMS5003;52216;54.942;73.394;2023-01-31T13:21:58;5.00;3.25;1.00
65574;PMS5003;52216;54.942;73.394;2023-01-31T13:25:13;3.00;3.00;1.00
65574;PMS5003;52216;54.942;73.394;2023-01-31T13:28:18;5.75;5.00;1.00
65574;PMS5003;52216;54.942;73.394;2023-01-31T13:31:34;3.00;3.00;1.00
65574;PMS5003;52216;54.942;73.394;2023-01-31T13:34:48;5.00;4.50;1.75
65574;PMS5003;52216;54.942;73.394;2023-01-31T13:37:55;6.00;5.00;1.00
65574;PMS5003;52216;54.942;73.394;2023-01-31T13:41:00;4.75;4.75;2.00
65574;PMS5003;52216;54.942;73.394;2023-01-31T13:44:07;7.00;6.50;3.00
65574;PMS5003;52216;54.942;73.394;2023-01-31T13:50:31;5.00;3.25;2.00
65574;PMS5003;52216;54.942;73.394;2023-01-31T13:53:41;5.50;5.00;2.00
65574;PMS5003;52216;54.942;73.394;2023-01-31T13:56:49;7.00;5.75;2.00
65574;PMS5003;52216;54.942;73.394;2023-01-31T13:59:55;6.50;6.50;2.00
65574;PMS5003;52216;54.942;73.394;2023-01-31T14:06:12;5.00;5.00;2.00
65574;PMS5003;52216;54.942;73.394;2023-01-31T14:09:28;6.00;5.00;3.00
65574;PMS5003;52216;54.942;73.394;2023-01-31T14:12:42;6.00;5.80;1.60
65574;PMS5003;52216;54.942;73.394;2023-01-31T14:15:48;5.50;5.50;1.75
65574;PMS5003;52216;54.942;73.394;2023-01-31T14:19:03;5.00;5.00;1.00
65574;PMS5003;52216;54.942;73.394;2023-01-31T14:22:20;3.00;3.00;1.00
65574;PMS5003;52216;54.942;73.394;2023-01-31T14:25:39;3.25;3.00;1.00
65574;PMS5003;52216;54.942;73.394;2023-01-31T14:28:53;3.00;3.00;1.00
65574;PMS5003;52216;54.942;73.394;2023-01-31T14:31:56;2.00;2.00;0.00
65574;PMS5003;52216;54.942;73.394;2023-01-31T14:35:01;3.00;2.00;0.50
65574;PMS5003;52216;54.942;73.394;2023-01-31T14:57:26;5.00;3.00;1.00
65574;PMS5003;52216;54.942;73.394;2023-01-31T15:00:46;3.00;1.67;0.00
65574;PMS5003;52216;54.942;73.394;2023-01-31T15:06:54;3.00;2.00;0.00
65574;PMS5003;52216;54.942;73.394;2023-01-31T15:09:58;3.00;3.00;1.00
65574;PMS5003;52216;54.942;73.394;2023-01-31T15:13:01;3.00;3.00;0.00
65574;PMS5003;52216;54.942;73.394;2023-01-31T15:16:17;3.00;2.00;0.00
65574;PMS5003;52216;54.942;73.394;2023-01-31T15:19:20;3.00;2.25;0.00
65574;PMS5003;52216;54.942;73.394;2023-01-31T15:22:26;5.00;3.25;0.25
65574;PMS5003;52216;54.942;73.394;2023-01-31T15:28:45;3.00;2.00;1.00
65574;PMS5003;52216;54.942;73.394;2023-01-31T15:31:51;2.75;2.50;1.00
65574;PMS5003;52216;54.942;73.394;2023-01-31T15:35:00;3.00;2.50;1.00
65574;PMS5003;52216;54.942;73.394;2023-01-31T15:38:29;3.00;3.00;1.00
65574;PMS5003;52216;54.942;73.394;2023-01-31T15:41:36;2.00;1.50;0.00
65574;PMS5003;52216;54.942;73.394;2023-01-31T15:44:39;3.00;3.00;1.00
65574;PMS5003;52216;54.942;73.394;2023-01-31T15:47:41;4.75;3.25;0.50
65574;PMS5003;52216;54.942;73.394;2023-01-31T15:50:48;5.00;5.00;1.00
65574;PMS5003;52216;54.942;73.394;2023-01-31T15:54:01;4.00;4.00;2.00
65574;PMS5003;52216;54.942;73.394;2023-01-31T15:57:04;4.75;4.25;1.50
65574;PMS5003;52216;54.942;73.394;2023-01-31T16:00:12;6.00;5.00;2.50
65574;PMS5003;52216;54.942;73.394;2023-01-31T16:03:20;6.00;5.33;2.00
65574;PMS5003;52216;54.942;73.394;2023-01-31T16:06:37;6.50;6.00;2.00
65574;PMS5003;52216;54.942;73.394;2023-01-31T16:09:41;3.25;3.00;0.00
65574;PMS5003;52216;54.942;73.394;2023-01-31T16:12:55;3.67;2.67;0.00
65574;PMS5003;52216;54.942;73.394;2023-01-31T16:16:37;5.00;4.50;0.50
65574;PMS5003;52216;54.942;73.394;2023-01-31T16:19:47;5.00;4.00;1.00
65574;PMS5003;52216;54.942;73.394;2023-01-31T16:23:01;8.25;6.25;2.25
65574;PMS5003;52216;54.942;73.394;2023-01-31T16:26:38;8.50;7.00;2.50
65574;PMS5003;52216;54.942;73.394;2023-01-31T16:29:46;10.00;8.00;2.25
65574;PMS5003;52216;54.942;73.394;2023-01-31T16:33:00;8.00;5.00;2.00
65574;PMS5003;52216;54.942;73.394;2023-01-31T16:36:11;6.00;5.50;2.00
65574;PMS5003;52216;54.942;73.394;2023-01-31T16:39:32;5.00;4.00;1.00
65574;PMS5003;52216;54.942;73.394;2023-01-31T16:42:36;5.00;4.00;1.00
65574;PMS5003;52216;54.942;73.394;2023-01-31T16:45:48;4.00;4.00;1.00
65574;PMS5003;52216;54.942;73.394;2023-01-31T16:49:04;3.25;3.00;1.00
65574;PMS5003;52216;54.942;73.394;2023-01-31T16:52:12;5.00;4.00;1.00
65574;PMS5003;52216;54.942;73.394;2023-01-31T16:55:18;5.00;3.00;0.50
65574;PMS5003;52216;54.942;73.394;2023-01-31T16:58:41;5.00;4.00;1.00
65574;PMS5003;52216;54.942;73.394;2023-01-31T17:01:51;5.00;4.00;1.00
65574;PMS5003;52216;54.942;73.394;2023-01-31T17:05:00;5.50;4.50;0.00
65574;PMS5003;52216;54.942;73.394;2023-01-31T17:08:14;6.75;6.00;2.00
65574;PMS5003;52216;54.942;73.394;2023-01-31T17:11:42;5.33;5.00;2.00
65574;PMS5003;52216;54.942;73.394;2023-01-31T17:14:45;5.50;3.75;1.00
65574;PMS5003;52216;54.942;73.394;2023-01-31T17:17:48;6.00;4.00;1.00
65574;PMS5003;52216;54.942;73.394;2023-01-31T17:20:57;3.75;3.00;1.00
65574;PMS5003;52216;54.942;73.394;2023-01-31T17:24:15;6.00;4.75;1.00
65574;PMS5003;52216;54.942;73.394;2023-01-31T17:27:17;4.00;3.00;1.00
65574;PMS5003;52216;54.942;73.394;2023-01-31T17:30:21;5.00;3.00;1.00
65574;PMS5003;52216;54.942;73.394;2023-01-31T17:33:25;4.00;3.00;1.00
65574;PMS5003;52216;54.942;73.394;2023-01-31T17:36:38;3.00;3.00;1.00
65574;PMS5003;52216;54.942;73.394;2023-01-31T17:39:45;3.25;3.25;1.00
65574;PMS5003;52216;54.942;73.394;2023-01-31T17:42:49;3.00;3.00;1.00
65574;PMS5003;52216;54.942;73.394;2023-01-31T17:46:04;5.75;5.00;1.50
65574;PMS5003;52216;54.942;73.394;2023-01-31T17:49:08;4.75;4.00;1.00
65574;PMS5003;52216;54.942;73.394;2023-01-31T17:52:10;5.33;4.33;1.33
65574;PMS5003;52216;54.942;73.394;2023-01-31T17:55:23;4.75;3.75;1.00
65574;PMS5003;52216;54.942;73.394;2023-01-31T17:58:30;4.50;3.00;0.00
65574;PMS5003;52216;54.942;73.394;2023-01-31T18:01:32;3.00;3.00;1.00
65574;PMS5003;52216;54.942;73.394;2023-01-31T18:04:45;5.00;4.00;1.00
65574;PMS5003;52216;54.942;73.394;2023-01-31T18:07:48;5.00;3.00;1.00
65574;PMS5003;52216;54.942;73.394;2023-01-31T18:11:07;4.50;3.50;1.00
65574;PMS5003;52216;54.942;73.394;2023-01-31T18:14:20;3.00;3.00;1.00
65574;PMS5003;52216;54.942;73.394;2023-01-31T18:17:23;3.00;3.00;1.00
65574;PMS5003;52216;54.942;73.394;2023-01-31T18:20:26;4.50;3.75;1.00
65574;PMS5003;52216;54.942;73.394;2023-01-31T18:23:40;4.00;3.00;1.00
65574;PMS5003;52216;54.942;73.394;2023-01-31T18:26:43;3.00;2.00;0.00
65574;PMS5003;52216;54.942;73.394;2023-01-31T18:29:46;6.00;5.25;1.75
65574;PMS5003;52216;54.942;73.394;2023-01-31T18:32:59;5.00;3.25;1.00
65574;PMS5003;52216;54.942;73.394;2023-01-31T18:36:03;3.00;3.00;0.00
65574;PMS5003;52216;54.942;73.394;2023-01-31T18:39:07;6.00;5.50;1.00
65574;PMS5003;52216;54.942;73.394;2023-01-31T18:42:10;5.00;5.00;1.00
65574;PMS5003;52216;54.942;73.394;2023-01-31T18:45:12;4.75;3.00;1.00
65574;PMS5003;52216;54.942;73.394;2023-01-31T18:48:19;4.00;3.00;1.00
65574;PMS5003;52216;54.942;73.394;2023-01-31T18:51:22;3.00;3.00;1.00
65574;PMS5003;52216;54.942;73.394;2023-01-31T18:54:25;5.50;3.50;1.00
65574;PMS5003;52216;54.942;73.394;2023-01-31T18:57:34;6.00;3.75;1.00
65574;PMS5003;52216;54.942;73.394;2023-01-31T19:00:47;5.00;4.75;1.00
65574;PMS5003;52216;54.942;73.394;2023-01-31T19:03:51;5.00;4.50;2.00
65574;PMS5003;52216;54.942;73.394;2023-01-31T19:07:09;5.00;3.00;1.00
65574;PMS5003;52216;54.942;73.394;2023-01-31T19:10:22;3.00;3.00;1.00
65574;PMS5003;52216;54.942;73.394;2023-01-31T19:13:30;4.75;4.50;0.25
65574;PMS5003;52216;54.942;73.394;2023-01-31T19:16:35;3.00;3.00;0.00
65574;PMS5003;52216;54.942;73.394;2023-01-31T19:19:38;3.00;3.00;1.00
65574;PMS5003;52216;54.942;73.394;2023-01-31T19:22:54;3.00;3.00;1.00
65574;PMS5003;52216;54.942;73.394;2023-01-31T19:25:56;5.00;4.00;1.00
65574;PMS5003;52216;54.942;73.394;2023-01-31T19:28:59;4.00;2.25;0.00
65574;PMS5003;52216;54.942;73.394;2023-01-31T19:32:03;5.00;3.25;0.00
65574;PMS5003;52216;54.942;73.394;2023-01-31T19:35:11;4.75;3.75;1.00
65574;PMS5003;52216;54.942;73.394;2023-01-31T19:38:30;5.00;4.00;1.00
65574;PMS5003;52216;54.942;73.394;2023-01-31T19:41:33;3.00;3.00;1.00
65574;PMS5003;52216;54.942;73.394;2023-01-31T19:44:37;4.75;3.00;1.00
65574;PMS5003;52216;54.942;73.394;2023-01-31T19:47:40;3.00;3.00;0.00
65574;PMS5003;52216;54.942;73.394;2023-01-31T19:50:43;4.33;3.00;1.00
65574;PMS5003;52216;54.942;73.394;2023-01-31T19:53:50;3.00;3.00;0.00
65574;PMS5003;52216;54.942;73.394;2023-01-31T19:56:59;3.00;3.00;0.00
65574;PMS5003;52216;54.942;73.394;2023-01-31T20:00:03;3.00;3.00;0.00